カラカス の空港の天気 - METARとTAF

シモン・ボリバー空港(バルガス) ( SVMI / CCS ) - ベネズエラ バルガス州、Maiquetia (カラカス近郊)
飛行場実況気象(Metar)
観測時間12/10 01:22 VET (12/10 05:22 UTC)
風向・風速東 1m/s
視程10km以上
天気現象
全天の4割程度の雲 雲底高度 490m
気温24℃
湿度78%
気圧1012hPa
METARSVMI 100800Z 09001KT 9999 SCT016 24/20 Q1012
過去の天気等 Google飛行場航空写真 Wunderground天気予報

過去48時間のMETAR

飛行場予報(TAF)
発表時間: 12/10 00:00 VET (12/10 04:00 UTC)
予報対象時間: 10日2時 VET ~ 11日2時 VET
風向・風速北東 2m/s
視程10km以上
少しの雲 雲底高度 490m
10日2時 VET ~ 10日6時 VET に一時的に
風向・風速静穏
視程10km以上
なし
10日7時 VET から
風向・風速北東 2m/s
視程10km以上
少しの雲 雲底高度 490m
TAF SVMI 100400Z 1006/1106 05003KT 9999 FEW016 TX33/18Z TN24/08Z
TEMPO 1006/1010 00000KT CAVOK
FM101100 05003KT 9999 FEW016